Terminal Aerodrome Forecast
Issued by NWS Corpus Christi, TX

Home | Current Version | Previous Version | Text Only | Print | Product List | Glossary On
Versions: 1 2 3 4 5 6 7 8 9 10 11 12 13 14 15 16 17 18 19 20
000
FTUS44 KCRP 290535
TAFVCT
TAF
KVCT 290535Z 2906/3006 13007KT P6SM SCT012 OVC025
     FM290800 13006KT 4SM BR SCT008 OVC015
      TEMPO 2909/2913 2SM BR BKN008
     FM291600 15017KT 5SM HZ BKN015 OVC025
     FM291900 14015KT P6SM BKN025 PROB30 2920/2924 4SM TSRA OVC020CB
     FM300000 14012KT P6SM BKN020
      TEMPO 3000/3004 VRB20G35KT 3SM +TSRA OVC015CB=

USA.gov is the U.S. government's official web portal to all federal, state and local government web resources and services.